Anton, CO

1:54 AM MDT on September 01, 2014 (GMT -0600)
Akron-Washington County | Change Station
CLOSE
Current Station
Airport
Location: Akron,
Elevation: 4662 ft
Nearby Weather Stations

Elev 4662 ft 40.17 °N, 103.21 °W | Updated 1 hour ago

Clear
Clear
52 °F
Feels Like 52 °F
N
7
Wind Variable Wind from NNW

Today
High -- | Low -- °F
--% Chance of Precip.
Yesterday
High -- | Low -- °F
Precip. -- in
6:21 AM 7:24 PM
Waxing Crescent, 38% visible
Pressure 29.88 in
Visibility 10.0 miles
Clouds Clear
Dew Point 46 °F
Humidity 80%
Rainfall 0.00 in
Snow Depth Not available.
UV 0 out of 12
Pollen 9.80 out of 12
Air Quality Not available.
Flu Activity Not available.
METAR KAKO 010653Z AUTO 33006KT 10SM CLR 11/08 A3000 RMK AO2 SLP118 T01110078 402440106

More Conditions Fewer Conditions

Pressure 29.88 in
Visibility 10.0 miles
Clouds Clear
Dew Point 46 °F
Humidity 80%
Rainfall 0.00 in
Snow Depth Not available.
UV 0 out of 12
Pollen 9.80 out of 12
Air Quality Not available.
Flu Activity Not available.
METAR KAKO 010653Z AUTO 33006KT 10SM CLR 11/08 A3000 RMK AO2 SLP118 T01110078 402440106

More Conditions Fewer Conditions

10-Day Weather Forecast

Almanac

Astronomy

Sep. 01, 2014 Rise Set
Actual Time 6:21 AM MDT 7:24 PM MDT
Civil Twilight 5:53 AM MDT 7:51 PM MDT
Nautical Twilight 5:20 AM MDT 8:24 PM MDT
Astronomical Twilight 4:46 AM MDT 8:58 PM MDT
Moon 1:08 PM MDT 11:28 PM MDT
Length of Visible Light 13h 58m
Length of Day
13h 02m
Tomorrow will be 2m 30s shorter.
Waxing Crescent, 38% of the Moon is Illuminated
Today
Waxing Crescent
Sep 2
First Quarter
Sep 8
Full
Sep 15
Last Quarter
Sep 24
New

Today's Extremes

State Highs State Lows

Community

WunderPhotos

Upload Photos

1,749,154 photos uploaded!

Nearby

Snow Depth

Station Depth Elevation
Niwot 1 in 9910 ft
University Camp 0 in 10300 ft
Echo Lake 0 in 10600 ft
Copeland Lake 0 in 8600 ft
Wild Basin 0 in 9560 ft

Earthquake Activity

City Distance Mag. Time & Date
No recent earthquake activity has been reported nearby.
Minimum magnitude displayed is 2.5.

Coastal Water Temperatures

Place Temperature
No Stations Reporting

Nearby Weather Stations